createdAt,value
2019-04-25T00:01:52.298Z,10.20
2019-04-25T00:04:22.123Z,10.10
2019-04-25T00:06:52.124Z,10.10
2019-04-25T00:09:22.775Z,10.10
2019-04-25T00:11:52.732Z,10.00
2019-04-25T00:14:23.186Z,9.90
2019-04-25T00:16:53.335Z,9.80
2019-04-25T00:19:22.226Z,9.70
2019-04-25T00:21:55.727Z,9.60
2019-04-25T00:24:43.273Z,9.60
2019-04-25T00:27:13.067Z,9.50
2019-04-25T00:29:43.883Z,9.40
2019-04-25T00:32:12.488Z,9.40
2019-04-25T00:34:43.535Z,9.30
2019-04-25T00:37:13.746Z,9.20
2019-04-25T00:39:44.760Z,9.20
2019-04-25T00:42:13.786Z,9.20
2019-04-25T00:44:44.594Z,9.20
2019-04-25T00:47:13.211Z,9.10
2019-04-25T00:49:43.214Z,9.10
2019-04-25T00:52:12.629Z,9.00
2019-04-25T00:54:43.076Z,8.90
2019-04-25T00:57:12.360Z,8.90
2019-04-25T00:59:53.149Z,8.90
2019-04-25T01:02:27.215Z,8.80
2019-04-25T01:04:56.131Z,8.80
2019-04-25T01:07:25.124Z,8.80
2019-04-25T01:09:54.614Z,8.80
2019-04-25T01:12:23.625Z,8.80
2019-04-25T01:14:52.875Z,8.80
2019-04-25T01:17:22.932Z,8.80
2019-04-25T01:19:52.011Z,8.80
2019-04-25T01:22:21.033Z,8.70
2019-04-25T01:24:49.925Z,8.70
2019-04-25T01:27:19.021Z,8.70
2019-04-25T01:29:47.886Z,8.60
2019-04-25T01:32:18.441Z,8.60
2019-04-25T01:34:49.071Z,8.60
2019-04-25T01:37:23.708Z,8.60
2019-04-25T01:40:06.413Z,8.50
2019-04-25T01:42:36.943Z,8.50
2019-04-25T01:45:08.053Z,8.50
2019-04-25T01:47:36.951Z,8.50
2019-04-25T01:50:07.494Z,8.50
2019-04-25T01:52:36.501Z,8.50
2019-04-25T01:55:07.247Z,8.50
2019-04-25T01:57:36.229Z,8.40
2019-04-25T02:00:06.843Z,8.40
2019-04-25T02:02:35.757Z,8.40
2019-04-25T02:05:06.466Z,8.30
2019-04-25T02:07:35.351Z,8.30
2019-04-25T02:10:05.171Z,8.20
2019-04-25T02:12:38.474Z,8.20
2019-04-25T02:15:07.791Z,8.20
2019-04-25T02:17:36.680Z,8.20
2019-04-25T02:20:06.594Z,8.10
2019-04-25T02:22:35.665Z,8.10
2019-04-25T02:25:05.923Z,8.10
2019-04-25T02:27:34.802Z,8.10
2019-04-25T02:30:06.882Z,8.10
2019-04-25T02:32:37.088Z,8.10
2019-04-25T02:35:09.318Z,8.10
2019-04-25T02:37:38.150Z,8.10
2019-04-25T02:40:08.483Z,8.00
2019-04-25T02:42:37.779Z,8.00
2019-04-25T02:45:27.359Z,8.00
2019-04-25T02:48:10.171Z,8.00
2019-04-25T02:50:58.649Z,8.00
2019-04-25T02:53:37.285Z,7.90
2019-04-25T02:56:26.187Z,7.90
2019-04-25T02:58:36.849Z,7.80
2019-04-25T03:01:16.505Z,7.80
2019-04-25T03:03:38.231Z,7.70
2019-04-25T03:06:09.263Z,7.70
2019-04-25T03:08:37.779Z,7.60
2019-04-25T03:11:08.080Z,7.60
2019-04-25T03:13:38.455Z,7.50
2019-04-25T03:16:09.673Z,7.50
2019-04-25T03:18:45.302Z,7.40
2019-04-25T03:21:17.484Z,7.40
2019-04-25T03:23:48.719Z,7.40
2019-04-25T03:26:17.708Z,7.30
2019-04-25T03:28:46.600Z,7.30
2019-04-25T03:31:21.947Z,7.20
2019-04-25T03:33:46.401Z,7.20
2019-04-25T03:36:17.044Z,7.20
2019-04-25T03:38:45.953Z,7.20
2019-04-25T03:41:14.876Z,7.20
2019-04-25T03:43:44.447Z,7.10
2019-04-25T03:46:14.297Z,7.10
2019-04-25T03:48:44.796Z,7.10
2019-04-25T03:51:15.421Z,7.00
2019-04-25T03:53:44.626Z,7.00
2019-04-25T03:56:14.627Z,7.00
2019-04-25T03:58:44.011Z,6.90
2019-04-25T04:01:15.428Z,6.90
2019-04-25T04:03:44.130Z,6.90
2019-04-25T04:06:15.272Z,6.90
2019-04-25T04:08:44.346Z,6.90
2019-04-25T04:11:33.741Z,6.80
2019-04-25T04:14:04.920Z,6.80
2019-04-25T04:16:34.989Z,6.70
2019-04-25T04:19:06.942Z,6.70
2019-04-25T04:21:39.632Z,6.70
2019-04-25T04:24:16.053Z,6.60
2019-04-25T04:26:46.602Z,6.60
2019-04-25T04:29:16.377Z,6.60
2019-04-25T04:31:45.541Z,6.60
2019-04-25T04:34:15.548Z,6.60
2019-04-25T04:36:46.600Z,6.50
2019-04-25T04:39:16.860Z,6.50
2019-04-25T04:41:45.687Z,6.50
2019-04-25T04:44:15.634Z,6.50
2019-04-25T04:46:45.311Z,6.50
2019-04-25T04:49:15.293Z,6.40
2019-04-25T04:51:44.436Z,6.50
2019-04-25T04:54:14.381Z,6.50
2019-04-25T04:56:43.877Z,6.50
2019-04-25T04:59:14.409Z,6.50
2019-04-25T05:01:45.035Z,6.50
2019-04-25T05:04:16.015Z,6.50
2019-04-25T05:06:47.399Z,6.60
2019-04-25T05:09:17.955Z,6.60
2019-04-25T05:11:46.949Z,6.60
2019-04-25T05:14:16.225Z,6.70
2019-04-25T05:16:45.248Z,6.70
2019-04-25T05:19:15.450Z,6.80
2019-04-25T05:21:45.612Z,6.90
2019-04-25T05:24:16.043Z,6.90
2019-04-25T05:26:45.416Z,7.00
2019-04-25T05:29:19.603Z,7.10
2019-04-25T05:31:49.137Z,7.20
2019-04-25T05:34:18.309Z,7.20
2019-04-25T05:36:47.334Z,7.30
2019-04-25T05:39:17.733Z,7.40
2019-04-25T05:41:48.391Z,7.50
2019-04-25T05:44:17.383Z,7.60
2019-04-25T05:46:46.479Z,7.70
2019-04-25T05:49:15.637Z,7.90
2019-04-25T05:51:44.671Z,8.00
2019-04-25T05:54:14.111Z,8.10
2019-04-25T05:56:43.792Z,8.20
2019-04-25T05:59:13.414Z,8.30
2019-04-25T06:01:43.465Z,8.40
2019-04-25T06:04:13.941Z,8.60
2019-04-25T06:06:44.548Z,8.70
2019-04-25T06:09:25.106Z,8.90
2019-04-25T06:11:59.331Z,9.10
2019-04-25T06:14:28.245Z,9.20
2019-04-25T06:16:58.672Z,9.40
2019-04-25T06:19:38.421Z,9.50
2019-04-25T06:22:09.054Z,9.70
2019-04-25T06:24:42.037Z,9.90
2019-04-25T06:27:13.886Z,10.00
2019-04-25T06:30:01.532Z,10.20
2019-04-25T06:32:30.420Z,10.40
2019-04-25T06:34:59.310Z,10.50
2019-04-25T06:37:29.011Z,10.60
2019-04-25T06:39:58.015Z,10.80
2019-04-25T06:42:27.043Z,10.90
2019-04-25T06:44:57.743Z,11.00
2019-04-25T06:47:37.976Z,11.20
2019-04-25T06:50:07.080Z,11.40
2019-04-25T06:52:35.969Z,11.50
2019-04-25T06:55:06.905Z,11.60
2019-04-25T06:57:35.921Z,11.80
2019-04-25T07:00:07.867Z,11.90
2019-04-25T07:02:36.777Z,12.00
2019-04-25T07:05:10.151Z,12.20
2019-04-25T07:07:39.166Z,12.30
2019-04-25T07:10:08.336Z,12.50
2019-04-25T07:12:37.255Z,12.60
2019-04-25T07:15:10.859Z,12.70
2019-04-25T07:17:39.824Z,12.90
2019-04-25T07:20:11.712Z,13.10
2019-04-25T07:26:13.506Z,13.40
2019-04-25T07:29:03.334Z,13.60
2019-04-25T07:31:34.800Z,13.70
2019-04-25T07:34:21.742Z,13.90
2019-04-25T07:36:50.738Z,14.10
2019-04-25T07:39:19.628Z,14.30
2019-04-25T07:41:48.929Z,14.40
2019-04-25T07:44:20.841Z,14.50
2019-04-25T07:46:48.835Z,14.70
2019-04-25T07:49:17.956Z,14.90
2019-04-25T07:51:47.310Z,15.10
2019-04-25T07:54:37.043Z,15.30
2019-04-25T07:57:08.081Z,15.40
2019-04-25T07:59:36.972Z,15.70
2019-04-25T08:02:06.068Z,15.90
2019-04-25T08:04:36.766Z,16.10
2019-04-25T08:07:05.724Z,16.30
2019-04-25T08:09:35.728Z,16.50
2019-04-25T08:12:05.493Z,16.70
2019-04-25T08:14:41.893Z,16.90
2019-04-25T08:17:12.394Z,17.20
2019-04-25T08:19:41.596Z,17.50
2019-04-25T08:22:10.715Z,17.70
2019-04-25T08:24:40.920Z,17.90
2019-04-25T08:27:09.832Z,18.10
2019-04-25T08:29:39.700Z,18.30
2019-04-25T08:32:08.950Z,18.50
2019-04-25T08:34:58.009Z,18.70
2019-04-25T08:37:27.321Z,18.90
2019-04-25T08:39:58.335Z,19.20
2019-04-25T08:42:28.806Z,19.40
2019-04-25T08:44:57.873Z,19.70
2019-04-25T08:47:26.971Z,19.90
2019-04-25T08:50:00.779Z,20.10
2019-04-25T08:52:29.957Z,20.30
2019-04-25T08:55:14.124Z,20.50
2019-04-25T08:57:56.915Z,20.80
2019-04-25T09:00:35.820Z,21.00
2019-04-25T09:03:14.350Z,21.20
2019-04-25T09:05:46.256Z,21.40
2019-04-25T09:08:15.446Z,21.60
2019-04-25T09:10:44.936Z,21.90
2019-04-25T09:13:14.045Z,22.10
2019-04-25T09:15:45.516Z,22.20
2019-04-25T09:18:14.097Z,22.40
2019-04-25T09:20:43.902Z,22.50
2019-04-25T09:23:14.013Z,22.60
2019-04-25T09:25:44.442Z,22.80
2019-04-25T09:28:14.274Z,22.80
2019-04-25T09:30:44.831Z,22.80
2019-04-25T09:33:13.879Z,22.90
2019-04-25T09:35:44.821Z,22.90
2019-04-25T09:38:13.398Z,23.00
2019-04-25T09:40:44.143Z,23.10
2019-04-25T09:43:13.628Z,23.20
2019-04-25T09:45:47.216Z,23.40
2019-04-25T09:48:49.210Z,23.50
2019-04-25T09:51:23.565Z,23.70
2019-04-25T09:53:54.219Z,23.90
2019-04-25T09:56:24.799Z,23.90
2019-04-25T09:58:58.190Z,24.00
2019-04-25T10:01:28.081Z,24.10
2019-04-25T10:03:56.998Z,24.30
2019-04-25T10:06:26.174Z,24.30
2019-04-25T10:08:55.088Z,24.50
2019-04-25T10:11:23.978Z,24.60
2019-04-25T10:14:04.637Z,24.70
2019-04-25T10:16:35.038Z,24.80
2019-04-25T10:19:04.373Z,25.00
2019-04-25T10:21:34.255Z,25.10
2019-04-25T10:24:03.633Z,25.20
2019-04-25T10:26:33.551Z,25.40
2019-04-25T10:29:05.560Z,25.60
2019-04-25T10:31:34.667Z,25.70
2019-04-25T10:34:03.823Z,25.80
2019-04-25T10:36:33.656Z,25.80
2019-04-25T10:39:08.640Z,25.90
2019-04-25T10:41:35.753Z,26.00
2019-04-25T10:44:05.145Z,26.10
2019-04-25T10:46:34.087Z,26.30
2019-04-25T10:49:04.378Z,26.40
2019-04-25T10:51:34.291Z,26.50
2019-04-25T10:54:04.136Z,26.60
2019-04-25T10:56:33.552Z,26.60
2019-04-25T11:00:05.921Z,26.70
2019-04-25T11:02:25.622Z,26.80
2019-04-25T11:04:58.916Z,26.90
2019-04-25T11:07:28.115Z,27.10
2019-04-25T11:09:57.006Z,27.20
2019-04-25T11:12:26.102Z,27.40
2019-04-25T11:14:56.631Z,27.60
2019-04-25T11:17:25.626Z,27.60
2019-04-25T11:19:55.460Z,27.70
2019-04-25T11:22:24.534Z,27.70
2019-04-25T11:24:53.398Z,27.70
2019-04-25T11:27:23.762Z,27.80
2019-04-25T11:29:54.837Z,27.90
2019-04-25T11:32:25.630Z,28.00
2019-04-25T11:34:54.964Z,28.10
2019-04-25T11:37:25.843Z,28.20
2019-04-25T11:39:59.062Z,28.20
2019-04-25T11:42:28.260Z,28.20
2019-04-25T11:44:57.253Z,28.10
2019-04-25T11:47:26.250Z,28.30
2019-04-25T11:49:55.798Z,28.40
2019-04-25T11:52:28.237Z,28.50
2019-04-25T11:54:55.792Z,28.50
2019-04-25T11:57:24.893Z,28.50
2019-04-25T11:59:54.611Z,28.50
2019-04-25T12:02:25.125Z,28.40
2019-04-25T12:04:55.934Z,28.40
2019-04-25T12:07:24.855Z,28.40
2019-04-25T12:09:54.530Z,28.40
2019-04-25T12:12:24.519Z,28.50
2019-04-25T12:14:54.360Z,28.50
2019-04-25T12:17:24.390Z,28.40
2019-04-25T12:19:54.593Z,28.50
2019-04-25T12:22:23.939Z,28.40
2019-04-25T12:24:54.342Z,28.50
2019-04-25T12:27:25.286Z,28.50
2019-04-25T12:29:54.449Z,28.40
2019-04-25T12:32:23.492Z,28.40
2019-04-25T12:34:52.385Z,28.40
2019-04-25T12:37:21.275Z,28.30
2019-04-25T12:39:50.920Z,28.20
2019-04-25T12:42:19.981Z,28.10
2019-04-25T12:45:05.767Z,28.10
2019-04-25T12:47:39.696Z,27.90
2019-04-25T12:50:09.083Z,27.80
2019-04-25T12:52:38.071Z,27.70
2019-04-25T12:55:07.225Z,27.60
2019-04-25T12:57:36.162Z,27.50
2019-04-25T13:00:06.486Z,27.40
2019-04-25T13:02:36.534Z,27.30
2019-04-25T13:05:07.023Z,27.40
2019-04-25T13:07:36.130Z,27.40
2019-04-25T13:10:07.488Z,27.40
2019-04-25T13:12:36.473Z,27.40
2019-04-25T13:15:06.156Z,27.70
2019-04-25T13:17:35.074Z,27.90
2019-04-25T13:20:07.486Z,28.10
2019-04-25T13:22:36.543Z,28.20
2019-04-25T13:25:06.881Z,28.30
2019-04-25T13:27:37.709Z,28.20
2019-04-25T13:30:09.929Z,28.00
2019-04-25T13:32:43.167Z,27.90
2019-04-25T13:35:13.675Z,27.80
2019-04-25T13:37:43.964Z,27.70
2019-04-25T13:40:16.220Z,27.50
2019-04-25T13:42:43.955Z,27.40
2019-04-25T13:45:14.402Z,27.40
2019-04-25T13:47:43.274Z,27.20
2019-04-25T13:50:12.971Z,27.10
2019-04-25T13:52:43.343Z,26.90
2019-04-25T13:55:14.201Z,26.90
2019-04-25T13:57:42.934Z,26.80
2019-04-25T14:00:14.124Z,26.80
2019-04-25T14:02:43.279Z,26.80
2019-04-25T14:05:14.641Z,26.80
2019-04-25T14:07:43.694Z,26.80
2019-04-25T14:10:14.176Z,26.80
2019-04-25T14:12:43.657Z,26.90
2019-04-25T14:15:15.156Z,26.80
2019-04-25T14:17:58.641Z,26.80
2019-04-25T14:20:41.050Z,26.70
2019-04-25T14:23:12.775Z,26.50
2019-04-25T14:25:40.675Z,26.40
2019-04-25T14:28:09.873Z,26.40
2019-04-25T14:30:38.887Z,26.30
2019-04-25T14:33:07.963Z,26.30
2019-04-25T14:35:36.855Z,26.30
2019-04-25T14:38:05.874Z,26.30
2019-04-25T14:40:34.738Z,26.30
2019-04-25T14:43:04.449Z,26.30
2019-04-25T14:45:43.058Z,26.30
2019-04-25T14:48:03.870Z,26.30
2019-04-25T14:50:32.761Z,26.30
2019-04-25T14:53:01.653Z,26.30
2019-04-25T14:55:34.538Z,26.30
2019-04-25T14:58:05.068Z,26.30
2019-04-25T15:00:41.639Z,26.30
2019-04-25T15:03:11.020Z,26.30
2019-04-25T15:05:42.161Z,26.30
2019-04-25T15:08:10.873Z,26.30
2019-04-25T15:10:39.767Z,26.40
2019-04-25T15:13:10.135Z,26.40
2019-04-25T15:15:39.098Z,26.50
2019-04-25T15:18:08.076Z,26.60
2019-04-25T15:20:36.967Z,26.60
2019-04-25T15:23:05.875Z,26.60
2019-04-25T15:25:34.852Z,26.70
2019-04-25T15:28:03.747Z,26.60
2019-04-25T15:30:34.258Z,26.60
2019-04-25T15:33:03.676Z,26.60
2019-04-25T15:35:49.260Z,26.60
2019-04-25T15:38:38.428Z,26.60
2019-04-25T15:41:08.955Z,26.50
2019-04-25T15:43:55.562Z,26.40
2019-04-25T15:46:29.041Z,26.30
2019-04-25T15:48:57.953Z,26.20
2019-04-25T15:51:26.960Z,26.10
2019-04-25T15:53:55.940Z,25.90
2019-04-25T15:56:24.934Z,25.70
2019-04-25T15:58:53.825Z,25.60
2019-04-25T16:01:22.921Z,25.60
2019-04-25T16:03:52.564Z,25.50
2019-04-25T16:06:21.728Z,25.30
2019-04-25T16:08:50.616Z,25.20
2019-04-25T16:11:21.199Z,25.10
2019-04-25T16:13:50.255Z,25.10
2019-04-25T16:16:20.945Z,25.10
2019-04-25T16:18:49.846Z,25.00
2019-04-25T16:21:18.762Z,25.00
2019-04-25T16:23:47.654Z,24.90
2019-04-25T16:26:16.515Z,24.90
2019-04-25T16:28:45.435Z,24.80
2019-04-25T16:31:15.966Z,24.80
2019-04-25T16:33:44.856Z,24.80
2019-04-25T16:36:14.054Z,24.80
2019-04-25T16:38:42.919Z,24.80
2019-04-25T16:41:12.453Z,24.80
2019-04-25T16:44:31.879Z,24.80
2019-04-25T16:47:01.716Z,24.80
2019-04-25T16:49:31.116Z,24.80
2019-04-25T16:52:00.460Z,24.70
2019-04-25T16:54:30.417Z,24.70
2019-04-25T16:57:00.180Z,24.70
2019-04-25T16:59:31.337Z,24.70
2019-04-25T17:02:00.826Z,24.60
2019-04-25T17:04:31.190Z,24.60
2019-04-25T17:07:00.791Z,24.60
2019-04-25T17:09:30.532Z,24.50
2019-04-25T17:12:01.896Z,24.40
2019-04-25T17:14:52.469Z,24.40
2019-04-25T17:17:23.274Z,24.30
2019-04-25T17:19:57.367Z,24.20
2019-04-25T17:22:26.669Z,24.20
2019-04-25T17:24:56.206Z,24.10
2019-04-25T17:27:26.846Z,24.00
2019-04-25T17:29:56.820Z,23.90
2019-04-25T17:32:51.161Z,23.80
2019-04-25T17:35:15.602Z,23.70
2019-04-25T17:37:46.424Z,23.60
2019-04-25T17:40:17.580Z,23.50
2019-04-25T17:42:47.836Z,23.40
2019-04-25T17:45:24.579Z,23.30
2019-04-25T17:47:54.957Z,23.20
2019-04-25T17:50:40.219Z,23.10
2019-04-25T17:53:09.908Z,22.90
2019-04-25T17:55:39.561Z,22.70
2019-04-25T17:58:10.686Z,22.60
2019-04-25T18:00:42.935Z,22.40
2019-04-25T18:03:12.696Z,22.30
2019-04-25T18:05:42.213Z,22.20
2019-04-25T18:08:11.165Z,22.00
2019-04-25T18:10:40.157Z,21.90
2019-04-25T18:13:09.529Z,21.80
2019-04-25T18:15:40.190Z,21.70
2019-04-25T18:18:10.694Z,21.50
2019-04-25T18:20:41.354Z,21.50
2019-04-25T18:23:13.663Z,21.30
2019-04-25T18:25:45.351Z,21.20
2019-04-25T18:28:21.955Z,21.00
2019-04-25T18:30:50.848Z,20.90
2019-04-25T18:33:21.376Z,20.80
2019-04-25T18:35:51.862Z,20.70
2019-04-25T18:38:28.170Z,20.50
2019-04-25T18:41:04.638Z,20.40
2019-04-25T18:43:47.354Z,20.40
2019-04-25T18:46:17.891Z,20.30
2019-04-25T18:49:05.209Z,20.20
2019-04-25T18:51:34.097Z,20.10
2019-04-25T18:54:13.537Z,20.00
2019-04-25T18:56:47.578Z,20.00
2019-04-25T18:59:34.461Z,19.90
2019-04-25T19:02:05.608Z,19.80
2019-04-25T19:04:41.819Z,19.70
2019-04-25T19:07:22.100Z,19.70
2019-04-25T19:09:41.393Z,19.80
2019-04-25T19:12:11.236Z,19.80
2019-04-25T19:14:41.272Z,19.80
2019-04-25T19:17:11.140Z,19.80
2019-04-25T19:19:41.045Z,19.90
2019-04-25T19:22:10.151Z,19.80
2019-04-25T19:24:40.373Z,19.90
2019-04-25T19:27:09.570Z,19.80
2019-04-25T19:29:38.466Z,19.90
2019-04-25T19:32:08.583Z,19.80
2019-04-25T19:34:37.476Z,19.80
2019-04-25T19:37:06.339Z,19.80
2019-04-25T19:39:36.792Z,19.80
2019-04-25T19:42:22.376Z,19.90
2019-04-25T19:44:51.473Z,19.90
2019-04-25T19:47:20.755Z,19.90
2019-04-25T19:49:49.902Z,19.90
2019-04-25T19:52:18.760Z,19.90
2019-04-25T19:54:47.651Z,19.80
2019-04-25T19:57:16.645Z,19.90
2019-04-25T19:59:46.437Z,19.80
2019-04-25T20:02:18.291Z,19.80
2019-04-25T20:04:48.851Z,19.80
2019-04-25T20:07:19.379Z,19.80
2019-04-25T20:10:06.193Z,19.80
2019-04-25T20:12:39.688Z,19.80
2019-04-25T20:15:08.901Z,19.70
2019-04-25T20:17:39.519Z,19.70
2019-04-25T20:20:08.717Z,19.70
2019-04-25T20:22:37.616Z,19.70
2019-04-25T20:25:06.975Z,19.70
2019-04-25T20:27:36.109Z,19.70
2019-04-25T20:30:07.540Z,19.70
2019-04-25T20:32:36.453Z,19.70
2019-04-25T20:35:05.649Z,19.70
2019-04-25T20:37:35.667Z,19.70
2019-04-25T20:40:05.891Z,19.70
2019-04-25T20:42:34.885Z,19.70
2019-04-25T20:45:04.368Z,19.60
2019-04-25T20:47:33.590Z,19.60
2019-04-25T20:50:02.785Z,19.60
2019-04-25T20:52:31.691Z,19.60
2019-04-25T20:55:01.118Z,19.50
2019-04-25T20:57:30.471Z,19.50
2019-04-25T21:00:01.496Z,19.40
2019-04-25T21:02:31.487Z,19.40
2019-04-25T21:05:01.060Z,19.30
2019-04-25T21:07:32.100Z,19.30
2019-04-25T21:10:02.741Z,19.20
2019-04-25T21:12:32.355Z,19.20
2019-04-25T21:15:03.714Z,19.10
2019-04-25T21:17:35.131Z,19.10
2019-04-25T21:20:07.086Z,19.00
2019-04-25T21:22:37.316Z,19.00
2019-04-25T21:25:06.730Z,18.90
2019-04-25T21:27:37.710Z,18.80
2019-04-25T21:30:07.214Z,18.80
2019-04-25T21:32:50.554Z,18.80
2019-04-25T21:35:20.491Z,18.70
2019-04-25T21:37:49.404Z,18.60
2019-04-25T21:40:23.006Z,18.60
2019-04-25T21:42:56.812Z,18.50
2019-04-25T21:45:26.215Z,18.40
2019-04-25T21:47:55.766Z,18.40
2019-04-25T21:50:25.815Z,18.30
2019-04-25T21:52:55.375Z,18.20
2019-04-25T21:55:24.623Z,18.00
2019-04-25T21:57:53.880Z,17.90
2019-04-25T22:00:34.719Z,17.80
2019-04-25T22:03:04.718Z,17.70
2019-04-25T22:05:34.038Z,17.50
2019-04-25T22:08:03.133Z,17.40
2019-04-25T22:10:59.980Z,17.30
2019-04-25T22:13:28.974Z,17.20
2019-04-25T22:15:59.596Z,17.10
2019-04-25T22:18:30.719Z,17.00
2019-04-25T22:21:00.222Z,16.90
2019-04-25T22:23:29.658Z,16.80
2019-04-25T22:25:59.171Z,16.70
2019-04-25T22:28:29.085Z,16.60
2019-04-25T22:31:01.136Z,16.50
2019-04-25T22:33:37.922Z,16.40
2019-04-25T22:36:08.463Z,16.30
2019-04-25T22:38:37.799Z,16.20
2019-04-25T22:41:26.099Z,16.10
2019-04-25T22:43:56.836Z,16.00
2019-04-25T22:46:26.810Z,15.90
2019-04-25T22:48:56.460Z,15.90
2019-04-25T22:51:25.454Z,15.80
2019-04-25T22:53:54.652Z,15.70
2019-04-25T22:56:23.544Z,15.60
2019-04-25T22:58:52.435Z,15.50
2019-04-25T23:01:35.459Z,15.40
2019-04-25T23:04:21.040Z,15.30
2019-04-25T23:06:50.033Z,15.20
2019-04-25T23:09:19.026Z,15.10
2019-04-25T23:11:48.224Z,15.00
2019-04-25T23:14:17.526Z,14.90
2019-04-25T23:16:46.394Z,14.90
2019-04-25T23:19:15.309Z,14.80
2019-04-25T23:21:44.609Z,14.70
2019-04-25T23:24:14.837Z,14.60
2019-04-25T23:27:01.848Z,14.50
2019-04-25T23:29:30.740Z,14.50
2019-04-25T23:31:59.639Z,14.40
2019-04-25T23:34:28.932Z,14.40
2019-04-25T23:36:57.823Z,14.30
2019-04-25T23:39:27.124Z,14.20
2019-04-25T23:41:56.016Z,14.10
2019-04-25T23:44:24.885Z,14.10
2019-04-25T23:46:54.078Z,14.00
2019-04-25T23:49:22.997Z,14.00
2019-04-25T23:51:54.149Z,13.90
2019-04-25T23:54:22.827Z,13.80
2019-04-25T23:56:51.748Z,13.70
2019-04-25T23:59:20.664Z,13.60
